Time;durP1;ratioP1;P1;durP2;ratioP2;P2;SDS_P1;SDS_P2;PMS_P1;PMS_P2;Temp;Humidity;BMP_temperature;BMP_pressure;BME280_temperature;BME280_humidity;BME280_pressure;Samples;Min_cycle;Max_cycle;Signal;HPM_P1;HPM_P2
2021/10/13 00:01:37;;;;;;;8.45;5.03;;;9.50;99.90;;;;;;5065376;28;20033;-77
2021/10/13 00:04:03;;;;;;;8.75;5.28;;;9.50;99.90;;;;;;5065605;28;20377;-77
2021/10/13 00:06:29;;;;;;;8.00;4.78;;;9.50;99.90;;;;;;5064943;28;20028;-79
2021/10/13 00:08:54;;;;;;;12.10;5.55;;;9.50;99.90;;;;;;5065379;28;20503;-86
2021/10/13 00:11:20;;;;;;;7.32;5.00;;;9.40;99.90;;;;;;5066267;28;20041;-86
2021/10/13 00:13:45;;;;;;;9.50;5.70;;;9.40;99.90;;;;;;5065702;28;20028;-88
2021/10/13 00:16:13;;;;;;;12.73;5.30;;;9.40;99.90;;;;;;5064248;28;20033;-87
2021/10/13 00:18:39;;;;;;;10.38;5.05;;;9.40;99.90;;;;;;5077470;28;20091;-89
2021/10/13 00:21:04;;;;;;;8.82;4.65;;;9.40;99.90;;;;;;5071835;28;20151;-90
2021/10/13 00:23:30;;;;;;;19.58;6.32;;;9.40;99.90;;;;;;5071651;28;20385;-78
2021/10/13 00:25:55;;;;;;;9.90;4.80;;;9.30;99.90;;;;;;5061377;28;20039;-89
2021/10/13 00:28:21;;;;;;;10.30;5.43;;;9.30;99.90;;;;;;5068995;28;20027;-89
2021/10/13 00:30:46;;;;;;;10.82;5.38;;;9.30;99.90;;;;;;5064375;28;20032;-74
2021/10/13 00:33:12;;;;;;;9.77;5.07;;;9.30;99.90;;;;;;5064728;28;20070;-74
2021/10/13 00:35:38;;;;;;;11.50;5.45;;;9.30;99.90;;;;;;5066102;28;20114;-74
2021/10/13 00:38:03;;;;;;;11.45;5.40;;;9.30;99.90;;;;;;5064863;28;20062;-74
2021/10/13 00:40:30;;;;;;;13.15;4.32;;;9.30;99.90;;;;;;5066647;28;20025;-74
2021/10/13 00:42:56;;;;;;;8.10;4.80;;;9.30;99.90;;;;;;5066507;28;20074;-74
2021/10/13 00:45:22;;;;;;;11.35;6.00;;;9.20;99.90;;;;;;5068294;28;20028;-74
2021/10/13 00:47:47;;;;;;;15.88;5.32;;;9.20;99.90;;;;;;5065497;28;20497;-77
2021/10/13 00:50:14;;;;;;;8.60;4.88;;;9.20;99.90;;;;;;5063046;28;20074;-74
2021/10/13 00:52:42;;;;;;;13.40;5.68;;;9.20;99.90;;;;;;5073515;28;20024;-74
2021/10/13 00:55:17;;;;;;;8.90;4.47;;;9.20;99.90;;;;;;5072803;28;20032;-74
2021/10/13 00:57:43;;;;;;;12.27;4.82;;;9.20;99.90;;;;;;5062878;28;20028;-74
2021/10/13 01:00:10;;;;;;;12.50;4.47;;;9.20;99.90;;;;;;5074183;28;20473;-74
2021/10/13 01:02:41;;;;;;;9.95;4.35;;;9.10;99.90;;;;;;5076886;28;20047;-74
2021/10/13 01:05:22;;;;;;;9.88;4.45;;;9.10;99.90;;;;;;5071687;28;20025;-74
2021/10/13 01:08:09;;;;;;;11.43;5.18;;;9.20;99.90;;;;;;5065743;28;20033;-73
2021/10/13 01:11:01;;;;;;;10.15;4.80;;;9.20;99.90;;;;;;5067588;28;20459;-74
2021/10/13 01:14:08;;;;;;;8.23;4.80;;;9.20;99.90;;;;;;5066692;28;20383;-74
2021/10/13 01:16:49;;;;;;;11.85;5.65;;;9.10;99.90;;;;;;5064451;28;20033;-77
2021/10/13 01:19:26;;;;;;;10.20;4.85;;;9.20;99.90;;;;;;5059032;28;20029;-74
2021/10/13 01:22:04;;;;;;;10.32;5.13;;;9.10;99.90;;;;;;5063426;28;20540;-74
2021/10/13 01:25:07;;;;;;;8.80;5.13;;;9.20;99.90;;;;;;5066279;28;20446;-76
2021/10/13 01:27:42;;;;;;;10.98;5.22;;;9.10;99.90;;;;;;5068320;28;20087;-75
2021/10/13 01:30:09;;;;;;;8.43;5.25;;;9.10;99.90;;;;;;5063134;28;20032;-74
2021/10/13 01:32:37;;;;;;;13.52;5.80;;;9.10;99.90;;;;;;5059125;28;20127;-74
2021/10/13 01:35:05;;;;;;;11.52;5.30;;;9.10;99.90;;;;;;5070157;28;20023;-75
2021/10/13 01:37:43;;;;;;;11.93;5.97;;;9.00;99.90;;;;;;5065191;28;20032;-74
2021/10/13 01:40:10;;;;;;;9.02;5.93;;;9.10;99.90;;;;;;5062211;28;20477;-79
2021/10/13 01:42:37;;;;;;;12.68;5.13;;;9.00;99.90;;;;;;5081316;28;20043;-74
2021/10/13 01:45:03;;;;;;;13.45;5.30;;;9.10;99.90;;;;;;5066581;28;20354;-74
2021/10/13 01:47:32;;;;;;;10.20;5.45;;;9.10;99.90;;;;;;5062863;28;20028;-74
2021/10/13 01:50:00;;;;;;;10.65;5.32;;;9.00;99.90;;;;;;5064323;28;20525;-74
2021/10/13 01:52:27;;;;;;;11.50;5.55;;;9.10;99.90;;;;;;5063184;28;20067;-74
2021/10/13 01:54:57;;;;;;;10.35;5.93;;;9.00;99.90;;;;;;5068236;28;20473;-74
2021/10/13 01:57:24;;;;;;;11.60;5.47;;;9.00;99.90;;;;;;5067836;28;20475;-74
2021/10/13 01:59:53;;;;;;;8.95;5.53;;;9.00;99.90;;;;;;5063049;28;20055;-74
2021/10/13 02:02:19;;;;;;;10.77;5.32;;;9.00;99.90;;;;;;5058432;28;20092;-77
2021/10/13 02:04:47;;;;;;;14.68;5.30;;;9.00;99.90;;;;;;5066778;28;20036;-74
2021/10/13 02:07:14;;;;;;;10.82;5.28;;;9.00;99.90;;;;;;5069731;28;20063;-74
2021/10/13 02:09:41;;;;;;;8.07;5.80;;;9.00;99.90;;;;;;5061080;28;20024;-75
2021/10/13 02:12:08;;;;;;;10.50;5.60;;;9.00;99.90;;;;;;5066912;28;20055;-74
2021/10/13 02:14:38;;;;;;;8.98;5.88;;;9.00;99.90;;;;;;5065938;28;20025;-74
2021/10/13 02:17:07;;;;;;;10.20;5.63;;;9.00;99.90;;;;;;5070144;28;20074;-83
2021/10/13 02:19:34;;;;;;;11.75;5.97;;;8.90;99.90;;;;;;5066562;28;20036;-89
2021/10/13 02:22:02;;;;;;;10.57;4.72;;;8.90;99.90;;;;;;5067859;28;20029;-90
2021/10/13 02:24:43;;;;;;;10.95;5.47;;;8.90;99.90;;;;;;5068624;28;20021;-86
2021/10/13 02:27:13;;;;;;;8.88;5.32;;;8.90;99.90;;;;;;5056098;28;20574;-89
2021/10/13 02:29:39;;;;;;;10.95;5.63;;;8.90;99.90;;;;;;5071744;28;20025;-90
2021/10/13 02:32:07;;;;;;;12.10;6.30;;;8.90;99.90;;;;;;5067670;28;20060;-81
2021/10/13 02:34:33;;;;;;;8.80;5.38;;;8.90;99.90;;;;;;5063438;28;20025;-88
2021/10/13 02:36:59;;;;;;;10.52;5.38;;;8.90;99.90;;;;;;5064055;28;20388;-88
2021/10/13 02:39:24;;;;;;;11.55;5.10;;;8.90;99.90;;;;;;5071814;28;20021;-90
2021/10/13 02:41:50;;;;;;;9.25;5.47;;;8.90;99.90;;;;;;5061597;28;20029;-89
2021/10/13 02:44:16;;;;;;;11.90;5.97;;;8.90;99.90;;;;;;5063206;28;20023;-90
2021/10/13 02:46:53;;;;;;;13.43;5.63;;;8.80;99.90;;;;;;5065001;28;20037;-89
2021/10/13 02:49:40;;;;;;;8.70;5.40;;;8.80;99.90;;;;;;5073013;28;20017;-90
2021/10/13 02:52:12;;;;;;;7.80;4.55;;;8.80;99.90;;;;;;5065412;28;20036;-90
2021/10/13 02:54:59;;;;;;;9.23;5.07;;;8.80;99.90;;;;;;5065169;28;20456;-90
2021/10/13 02:57:32;;;;;;;11.43;4.85;;;8.80;99.90;;;;;;5073218;28;20086;-89
2021/10/13 03:00:02;;;;;;;8.57;5.15;;;8.70;99.90;;;;;;5071433;28;20031;-90
2021/10/13 03:02:33;;;;;;;11.07;4.75;;;8.70;99.90;;;;;;5066637;28;20021;-90
2021/10/13 03:05:01;;;;;;;7.07;5.05;;;8.70;99.90;;;;;;5077770;28;20031;-90
2021/10/13 03:07:38;;;;;;;6.40;4.50;;;8.70;99.90;;;;;;5061486;28;20067;-89
2021/10/13 03:10:05;;;;;;;14.55;5.40;;;8.80;99.90;;;;;;5065024;28;20126;-89
2021/10/13 03:12:38;;;;;;;13.00;5.35;;;8.70;99.90;;;;;;5067450;28;20174;-89
2021/10/13 03:15:05;;;;;;;16.05;5.97;;;8.80;99.90;;;;;;5074390;28;20017;-90
2021/10/13 03:17:31;;;;;;;11.82;5.60;;;8.70;99.90;;;;;;5072988;28;20020;-90
2021/10/13 03:19:58;;;;;;;9.88;5.82;;;8.70;99.90;;;;;;5080767;28;20372;-89
2021/10/13 03:22:25;;;;;;;10.38;5.47;;;8.80;99.90;;;;;;5067487;28;20389;-88
2021/10/13 03:24:51;;;;;;;14.05;6.40;;;8.70;99.90;;;;;;5075109;28;20495;-89
2021/10/13 03:27:17;;;;;;;10.18;6.15;;;8.70;99.90;;;;;;5067218;28;20028;-89
2021/10/13 03:29:42;;;;;;;7.88;5.32;;;8.70;99.90;;;;;;5076552;28;20028;-89
2021/10/13 03:32:08;;;;;;;7.50;5.28;;;8.70;99.90;;;;;;5071821;28;20084;-85
2021/10/13 03:34:34;;;;;;;9.20;5.75;;;8.70;99.90;;;;;;5073359;28;20504;-83
2021/10/13 03:37:00;;;;;;;11.25;6.97;;;8.70;99.90;;;;;;5078694;28;20053;-85
2021/10/13 03:39:26;;;;;;;9.45;5.72;;;8.70;99.90;;;;;;5077379;28;20020;-83
2021/10/13 03:41:52;;;;;;;11.32;6.30;;;8.70;99.90;;;;;;5077133;28;20484;-86
2021/10/13 03:44:19;;;;;;;10.70;5.72;;;8.70;99.90;;;;;;5076109;28;20391;-86
2021/10/13 03:46:45;;;;;;;14.77;6.80;;;8.70;99.90;;;;;;5077086;28;20033;-90
2021/10/13 03:49:11;;;;;;;11.13;6.13;;;8.80;99.90;;;;;;5062456;28;20044;-89
2021/10/13 03:51:36;;;;;;;14.23;6.05;;;8.70;99.90;;;;;;5063380;28;20385;-91
2021/10/13 03:54:03;;;;;;;12.80;5.63;;;8.70;99.90;;;;;;5067741;28;20040;-86
2021/10/13 03:56:32;;;;;;;16.55;6.63;;;8.70;99.90;;;;;;5065632;28;20040;-85
2021/10/13 03:58:59;;;;;;;11.98;5.68;;;8.70;99.90;;;;;;5071448;28;20029;-87
2021/10/13 04:01:25;;;;;;;11.98;6.43;;;8.70;99.90;;;;;;5076730;28;20028;-89
2021/10/13 04:03:51;;;;;;;11.25;7.68;;;8.70;99.90;;;;;;5065876;28;20074;-84
2021/10/13 04:06:16;;;;;;;16.83;7.68;;;8.70;99.90;;;;;;5066186;28;20108;-84
2021/10/13 04:08:42;;;;;;;11.10;6.25;;;8.70;99.90;;;;;;5065299;28;20106;-83
2021/10/13 04:11:07;;;;;;;19.33;7.35;;;8.70;99.90;;;;;;5065929;28;20047;-88
2021/10/13 04:13:33;;;;;;;12.80;7.72;;;8.70;99.90;;;;;;5067819;28;20021;-88
2021/10/13 04:15:59;;;;;;;12.55;7.13;;;8.60;99.90;;;;;;5071464;28;20062;-88
2021/10/13 04:18:24;;;;;;;12.27;6.88;;;8.50;99.90;;;;;;5078809;28;20461;-86
2021/10/13 04:20:50;;;;;;;12.32;6.70;;;8.60;99.90;;;;;;5079465;28;20063;-85
2021/10/13 04:23:16;;;;;;;9.93;6.97;;;8.60;99.90;;;;;;5059307;28;20036;-88
2021/10/13 04:25:42;;;;;;;15.25;7.57;;;8.60;99.90;;;;;;5070489;28;20025;-88
2021/10/13 04:28:07;;;;;;;15.35;6.75;;;8.70;99.90;;;;;;5060857;28;20034;-88
2021/10/13 04:30:33;;;;;;;13.57;7.47;;;8.70;99.90;;;;;;5067467;28;20106;-86
2021/10/13 04:32:59;;;;;;;12.23;7.50;;;8.70;99.90;;;;;;5067315;28;20067;-85
2021/10/13 04:35:25;;;;;;;11.05;6.72;;;8.70;99.90;;;;;;5064151;28;20048;-89
2021/10/13 04:37:51;;;;;;;12.75;6.95;;;8.70;99.90;;;;;;5063598;28;20054;-89
2021/10/13 04:40:16;;;;;;;9.75;7.15;;;8.70;99.90;;;;;;5063031;28;20032;-86
2021/10/13 04:42:42;;;;;;;13.52;7.93;;;8.70;99.90;;;;;;5063956;28;20020;-89
2021/10/13 04:45:08;;;;;;;16.48;8.35;;;8.70;99.90;;;;;;5064688;28;20386;-88
2021/10/13 04:47:33;;;;;;;17.38;8.27;;;8.70;99.90;;;;;;5067899;28;20021;-89
2021/10/13 04:49:59;;;;;;;22.88;8.70;;;8.80;99.90;;;;;;5069290;28;20029;-89
2021/10/13 04:52:24;;;;;;;12.43;8.05;;;8.80;99.90;;;;;;5073170;28;20025;-90
2021/10/13 04:54:50;;;;;;;16.10;9.45;;;8.80;99.90;;;;;;5073295;28;20029;-87
2021/10/13 04:57:16;;;;;;;18.58;10.13;;;8.80;99.90;;;;;;5073394;28;20039;-89
2021/10/13 04:59:42;;;;;;;16.23;8.70;;;8.80;99.90;;;;;;5066139;28;20060;-89
2021/10/13 05:02:07;;;;;;;12.27;8.52;;;8.90;99.90;;;;;;5073954;28;20061;-89
2021/10/13 05:04:33;;;;;;;16.98;8.65;;;8.90;99.90;;;;;;5077608;28;20027;-86
2021/10/13 05:07:00;;;;;;;12.32;8.88;;;8.90;99.90;;;;;;5077350;28;20012;-89
2021/10/13 05:09:26;;;;;;;15.32;8.32;;;8.90;99.90;;;;;;5075438;28;20036;-79
2021/10/13 05:11:51;;;;;;;23.45;11.68;;;8.90;99.90;;;;;;5063155;28;20043;-85
2021/10/13 05:14:17;;;;;;;22.50;9.52;;;8.90;99.90;;;;;;5068964;28;20023;-88
2021/10/13 05:16:43;;;;;;;25.60;12.07;;;8.90;99.90;;;;;;5062234;28;20555;-91
2021/10/13 05:19:09;;;;;;;16.13;11.00;;;9.00;99.90;;;;;;5074274;28;20071;-91
2021/10/13 05:21:35;;;;;;;19.45;9.43;;;9.10;99.90;;;;;;5062245;28;20044;-91
2021/10/13 05:24:00;;;;;;;18.15;9.73;;;9.00;99.90;;;;;;5069634;28;20029;-91
2021/10/13 05:26:28;;;;;;;17.20;10.82;;;9.00;99.90;;;;;;5075459;28;20036;-90
2021/10/13 05:28:54;;;;;;;18.23;9.90;;;9.10;99.90;;;;;;5073532;28;20024;-92
2021/10/13 05:31:19;;;;;;;15.82;9.43;;;9.10;99.90;;;;;;5066026;28;20477;-92
2021/10/13 05:33:45;;;;;;;20.27;9.38;;;9.10;99.90;;;;;;5062184;28;20510;-92
2021/10/13 05:36:11;;;;;;;16.42;9.30;;;9.10;99.90;;;;;;5064398;28;20487;-91
2021/10/13 05:38:36;;;;;;;17.05;9.98;;;9.10;99.90;;;;;;5069588;28;20025;-92
2021/10/13 05:41:03;;;;;;;15.00;9.15;;;9.20;99.90;;;;;;5072240;28;20094;-90
2021/10/13 05:43:29;;;;;;;13.02;8.73;;;9.20;99.90;;;;;;5069151;28;20364;-92
2021/10/13 05:45:55;;;;;;;14.60;10.65;;;9.20;99.90;;;;;;5072419;28;20025;-92
2021/10/13 05:48:21;;;;;;;17.85;9.85;;;9.30;99.90;;;;;;5070493;28;20057;-88
2021/10/13 05:50:47;;;;;;;19.42;11.05;;;9.20;99.90;;;;;;5075975;28;20029;-93
2021/10/13 05:53:12;;;;;;;21.15;11.00;;;9.20;99.90;;;;;;5069712;28;20014;-92
2021/10/13 05:55:38;;;;;;;17.52;10.30;;;9.20;99.90;;;;;;5068589;28;20029;-89
2021/10/13 05:58:05;;;;;;;17.83;10.80;;;9.30;99.90;;;;;;5076553;28;20104;-91
2021/10/13 06:00:31;;;;;;;17.75;9.77;;;9.30;99.90;;;;;;5070518;28;20017;-81
2021/10/13 06:02:58;;;;;;;17.92;11.13;;;9.30;99.90;;;;;;5067562;28;20039;-91
2021/10/13 06:05:25;;;;;;;14.68;9.77;;;9.40;99.90;;;;;;5062931;28;20112;-83
2021/10/13 06:07:51;;;;;;;22.15;11.48;;;9.40;99.90;;;;;;5062627;28;20471;-84
2021/10/13 06:10:16;;;;;;;14.02;8.68;;;9.40;99.90;;;;;;5065698;28;20025;-85
2021/10/13 06:12:42;;;;;;;17.85;9.57;;;9.40;99.90;;;;;;5065598;28;20024;-82
2021/10/13 06:15:08;;;;;;;18.20;11.05;;;9.40;99.90;;;;;;5059495;28;20057;-82
2021/10/13 06:17:34;;;;;;;17.27;10.80;;;9.40;99.90;;;;;;5062987;28;20127;-92
2021/10/13 06:19:59;;;;;;;18.00;10.02;;;9.40;99.90;;;;;;5070543;28;20463;-88
2021/10/13 06:22:25;;;;;;;22.63;14.23;;;9.50;99.90;;;;;;5062025;28;20029;-88
2021/10/13 06:24:51;;;;;;;18.13;10.48;;;9.50;99.90;;;;;;5072590;28;20145;-85
2021/10/13 06:27:17;;;;;;;27.33;14.45;;;9.50;99.90;;;;;;5058463;28;20033;-86
2021/10/13 06:29:42;;;;;;;19.63;12.45;;;9.50;99.90;;;;;;5067625;28;20420;-86
2021/10/13 06:32:08;;;;;;;31.00;19.42;;;9.50;99.90;;;;;;5058940;28;20484;-81
2021/10/13 06:34:34;;;;;;;18.98;11.93;;;9.50;99.90;;;;;;5066389;28;20146;-81
2021/10/13 06:36:59;;;;;;;21.38;12.57;;;9.60;99.90;;;;;;5065208;28;20028;-77
2021/10/13 06:39:25;;;;;;;27.95;13.43;;;9.60;99.90;;;;;;5064256;28;20432;-80
2021/10/13 06:41:51;;;;;;;28.55;14.32;;;9.60;99.90;;;;;;5064338;28;20036;-79
2021/10/13 06:44:16;;;;;;;24.60;13.25;;;9.70;99.90;;;;;;5068440;28;20025;-76
2021/10/13 06:46:43;;;;;;;19.75;12.05;;;9.60;99.90;;;;;;5067149;28;20018;-82
2021/10/13 06:49:08;;;;;;;35.42;13.07;;;9.60;99.90;;;;;;5073571;28;20024;-78
2021/10/13 06:51:35;;;;;;;23.02;13.10;;;9.70;99.90;;;;;;5071305;28;20032;-81
2021/10/13 06:54:00;;;;;;;31.02;17.95;;;9.70;99.90;;;;;;5069816;28;20020;-81
2021/10/13 06:56:26;;;;;;;25.58;14.82;;;9.70;99.90;;;;;;5066289;28;20100;-81
2021/10/13 06:58:52;;;;;;;24.38;14.35;;;9.80;99.90;;;;;;5055450;28;20075;-81
2021/10/13 07:01:18;;;;;;;24.23;13.52;;;9.80;99.90;;;;;;5054101;28;20021;-82
2021/10/13 07:03:45;;;;;;;21.98;15.18;;;9.90;99.90;;;;;;5066106;28;20112;-83
2021/10/13 07:06:11;;;;;;;32.63;15.40;;;9.90;99.90;;;;;;5064363;28;20021;-82
2021/10/13 07:08:36;;;;;;;29.42;16.20;;;9.90;99.90;;;;;;5072192;28;20031;-82
2021/10/13 07:11:02;;;;;;;29.17;16.13;;;9.90;99.90;;;;;;5079669;28;20075;-79
2021/10/13 07:13:28;;;;;;;31.42;17.40;;;10.00;99.90;;;;;;5061095;28;20029;-81
2021/10/13 07:15:54;;;;;;;25.25;16.17;;;10.00;99.90;;;;;;5074262;28;20071;-81
2021/10/13 07:18:19;;;;;;;27.05;15.60;;;10.00;99.90;;;;;;5065266;28;20025;-83
2021/10/13 07:20:45;;;;;;;28.77;15.93;;;10.00;99.90;;;;;;5082625;28;20100;-83
2021/10/13 07:23:11;;;;;;;25.48;15.50;;;10.10;99.90;;;;;;5078131;28;20516;-74
2021/10/13 07:25:37;;;;;;;26.15;14.70;;;10.10;99.90;;;;;;5069634;28;20095;-74
2021/10/13 07:28:02;;;;;;;37.63;18.15;;;10.20;99.90;;;;;;5065355;28;20060;-74
2021/10/13 07:30:31;;;;;;;33.95;17.38;;;10.20;99.90;;;;;;5068432;28;20064;-73
2021/10/13 07:32:57;;;;;;;22.67;14.85;;;10.30;99.90;;;;;;5072001;28;20054;-74
2021/10/13 07:35:23;;;;;;;26.40;15.18;;;10.40;99.90;;;;;;5064242;28;20016;-73
2021/10/13 07:37:50;;;;;;;24.50;15.45;;;10.40;99.90;;;;;;5063984;28;20021;-73
2021/10/13 07:40:16;;;;;;;25.50;15.15;;;10.40;99.90;;;;;;5070902;28;20415;-73
2021/10/13 07:42:42;;;;;;;32.15;20.17;;;10.50;99.90;;;;;;5076546;28;20028;-73
2021/10/13 07:45:08;;;;;;;41.80;21.98;;;10.50;99.90;;;;;;5076810;28;20103;-74
2021/10/13 07:47:34;;;;;;;29.08;16.45;;;10.60;99.90;;;;;;5068770;28;20480;-73
2021/10/13 07:50:00;;;;;;;25.63;18.05;;;10.60;99.90;;;;;;5073869;28;20016;-74
2021/10/13 07:52:25;;;;;;;29.15;18.65;;;10.60;99.90;;;;;;5074518;28;20028;-74
2021/10/13 07:54:51;;;;;;;23.88;14.68;;;10.70;99.90;;;;;;5071478;28;20059;-74
2021/10/13 07:57:16;;;;;;;23.05;13.13;;;10.70;99.90;;;;;;5072481;28;20356;-73
2021/10/13 07:59:42;;;;;;;33.50;18.60;;;10.80;99.90;;;;;;5071985;28;20091;-73
2021/10/13 08:02:08;;;;;;;32.00;18.17;;;10.80;99.90;;;;;;5063054;28;20327;-73
2021/10/13 08:04:34;;;;;;;32.03;17.67;;;10.80;99.90;;;;;;5066762;28;20028;-72
2021/10/13 08:06:59;;;;;;;27.35;16.83;;;10.80;99.90;;;;;;5074880;28;20016;-72
2021/10/13 08:09:25;;;;;;;32.58;23.60;;;10.90;99.90;;;;;;5066791;28;20030;-73
2021/10/13 08:11:51;;;;;;;26.08;17.08;;;10.90;99.90;;;;;;5069685;28;20039;-73
2021/10/13 08:14:17;;;;;;;27.00;15.10;;;11.00;99.90;;;;;;5061853;28;20017;-73
2021/10/13 08:16:42;;;;;;;24.77;16.38;;;11.00;99.90;;;;;;5068335;28;20040;-73
2021/10/13 08:19:08;;;;;;;31.73;17.33;;;11.10;99.90;;;;;;5072314;28;20044;-73
2021/10/13 08:21:34;;;;;;;30.70;17.75;;;11.20;99.90;;;;;;5064274;28;20064;-74
2021/10/13 08:24:00;;;;;;;27.38;17.08;;;11.20;99.90;;;;;;5066055;28;20033;-74
2021/10/13 08:26:25;;;;;;;26.08;15.85;;;11.30;99.90;;;;;;5070081;28;20032;-74
2021/10/13 08:28:51;;;;;;;26.00;16.52;;;11.40;99.90;;;;;;5062842;28;20401;-77
2021/10/13 08:31:16;;;;;;;22.70;14.70;;;11.40;99.90;;;;;;5067886;28;20078;-74
2021/10/13 08:33:42;;;;;;;25.75;18.05;;;11.50;99.90;;;;;;5065577;28;20532;-77
2021/10/13 08:36:08;;;;;;;27.60;18.52;;;11.60;99.90;;;;;;5061965;28;20021;-78
2021/10/13 08:38:34;;;;;;;30.50;18.08;;;11.60;99.90;;;;;;5070747;28;20017;-77
2021/10/13 08:40:59;;;;;;;39.88;18.30;;;11.70;99.90;;;;;;5071700;28;20016;-75
2021/10/13 08:43:25;;;;;;;31.35;17.42;;;11.70;99.90;;;;;;5075953;28;20035;-75
2021/10/13 08:45:51;;;;;;;26.90;16.33;;;11.80;99.90;;;;;;5070200;28;20048;-76
2021/10/13 08:48:16;;;;;;;27.40;15.95;;;11.80;99.90;;;;;;5074755;28;20114;-75
2021/10/13 08:50:42;;;;;;;25.38;13.90;;;11.80;99.90;;;;;;5070557;28;20037;-71
2021/10/13 08:53:11;;;;;;;32.15;16.35;;;11.80;99.90;;;;;;5069498;28;20466;-74
2021/10/13 08:55:39;;;;;;;26.85;16.27;;;12.00;99.90;;;;;;5063460;28;20024;-74
2021/10/13 08:58:12;;;;;;;24.10;14.75;;;12.00;99.90;;;;;;5066898;28;20025;-74
2021/10/13 09:00:38;;;;;;;19.58;11.20;;;12.10;99.90;;;;;;5066895;28;20024;-74
2021/10/13 09:03:04;;;;;;;19.67;11.68;;;12.10;99.90;;;;;;5065903;28;20021;-74
2021/10/13 09:05:30;;;;;;;17.42;10.20;;;12.20;99.90;;;;;;5070504;28;20024;-74
2021/10/13 09:07:59;;;;;;;16.92;10.82;;;12.30;99.90;;;;;;5064704;28;20036;-73
2021/10/13 09:10:34;;;;;;;16.67;9.88;;;12.40;99.90;;;;;;5065534;28;20021;-74
2021/10/13 09:13:10;;;;;;;16.55;10.10;;;12.50;99.90;;;;;;5066080;28;20117;-74
2021/10/13 09:15:35;;;;;;;13.60;10.43;;;12.50;99.90;;;;;;5061944;28;20057;-75
2021/10/13 09:18:04;;;;;;;15.55;9.80;;;12.50;99.90;;;;;;5063921;28;20099;-74
2021/10/13 09:20:36;;;;;;;17.20;9.05;;;12.60;99.90;;;;;;5058953;28;20100;-75
2021/10/13 09:23:08;;;;;;;15.32;9.10;;;12.50;99.90;;;;;;5061633;28;20495;-75
2021/10/13 09:25:35;;;;;;;20.42;9.00;;;12.50;99.90;;;;;;5062599;28;20012;-75
2021/10/13 09:28:02;;;;;;;11.23;8.23;;;12.60;99.90;;;;;;5067883;28;20043;-75
2021/10/13 09:30:40;;;;;;;15.35;8.30;;;12.60;99.90;;;;;;5062277;28;20028;-75
2021/10/13 09:33:19;;;;;;;18.90;8.80;;;12.70;99.90;;;;;;5069052;28;20036;-75
2021/10/13 09:35:49;;;;;;;16.17;9.10;;;12.70;99.90;;;;;;5066263;28;20028;-76
2021/10/13 09:38:26;;;;;;;13.82;9.98;;;12.80;99.90;;;;;;5068537;28;20032;-76
2021/10/13 09:41:00;;;;;;;14.43;9.80;;;12.80;99.90;;;;;;5069286;28;20460;-75
2021/10/13 09:43:33;;;;;;;14.23;7.72;;;13.00;99.90;;;;;;5067630;28;20031;-76
2021/10/13 09:46:05;;;;;;;11.35;8.02;;;13.00;99.90;;;;;;5058250;28;20159;-75
2021/10/13 09:48:31;;;;;;;12.82;6.35;;;13.10;99.90;;;;;;5067439;28;20502;-74
2021/10/13 09:50:56;;;;;;;12.63;6.95;;;13.10;99.90;;;;;;5056382;28;20111;-75
2021/10/13 09:53:30;;;;;;;9.90;6.53;;;13.10;99.90;;;;;;5062390;28;20017;-76
2021/10/13 09:55:56;;;;;;;13.32;6.55;;;13.10;99.90;;;;;;5060695;28;20021;-77
2021/10/13 09:58:23;;;;;;;8.00;7.20;;;13.10;99.90;;;;;;5058780;28;20028;-75
2021/10/13 10:00:50;;;;;;;10.77;5.75;;;13.10;99.90;;;;;;5059804;28;20064;-75
2021/10/13 10:03:16;;;;;;;9.32;4.60;;;13.20;99.90;;;;;;5058897;28;20058;-75
2021/10/13 10:05:42;;;;;;;10.52;5.07;;;13.30;99.90;;;;;;5056243;28;20412;-75
2021/10/13 10:08:11;;;;;;;10.05;5.35;;;13.40;99.90;;;;;;5056032;28;20036;-76
2021/10/13 10:11:01;;;;;;;12.98;5.40;;;13.60;99.90;;;;;;5063235;28;20029;-75
2021/10/13 10:13:34;;;;;;;9.18;4.75;;;13.70;99.90;;;;;;5064271;28;20040;-75
2021/10/13 10:16:00;;;;;;;9.80;4.25;;;13.80;99.90;;;;;;5056638;28;20143;-75
2021/10/13 10:18:34;;;;;;;27.73;16.48;;;13.80;99.90;;;;;;5060471;28;20103;-76
2021/10/13 10:21:18;;;;;;;15.52;8.35;;;13.90;99.90;;;;;;5065679;28;20478;-75
2021/10/13 10:23:54;;;;;;;7.13;4.80;;;13.80;99.90;;;;;;5072212;28;20103;-75
2021/10/13 10:26:25;;;;;;;5.35;3.30;;;13.90;99.90;;;;;;5062911;28;20083;-75
2021/10/13 10:28:51;;;;;;;20.40;11.32;;;13.90;99.90;;;;;;5069629;28;20098;-74
2021/10/13 10:31:30;;;;;;;10.75;6.85;;;13.90;99.90;;;;;;5061386;28;20041;-75
2021/10/13 10:34:16;;;;;;;11.75;5.07;;;14.00;99.90;;;;;;5070499;28;20078;-75
2021/10/13 10:36:44;;;;;;;9.00;4.00;;;14.00;99.90;;;;;;5063828;28;20021;-75
2021/10/13 10:39:12;;;;;;;6.53;3.00;;;14.00;99.90;;;;;;5069286;28;20052;-75
2021/10/13 10:41:42;;;;;;;57.10;7.35;;;14.00;99.90;;;;;;5074276;28;20021;-75
2021/10/13 10:44:26;;;;;;;8.57;3.60;;;14.10;99.90;;;;;;5075092;28;20111;-75
2021/10/13 10:46:59;;;;;;;21.65;4.53;;;14.10;99.90;;;;;;5074003;28;20068;-75
2021/10/13 10:49:45;;;;;;;16.92;4.00;;;14.10;99.90;;;;;;5077424;28;20031;-75
2021/10/13 10:52:12;;;;;;;12.13;2.97;;;14.20;99.90;;;;;;5066368;28;20044;-75
2021/10/13 10:54:38;;;;;;;15.48;2.80;;;14.30;99.90;;;;;;5075334;28;20099;-75
2021/10/13 10:57:32;;;;;;;19.88;2.95;;;14.40;99.90;;;;;;5074339;28;20100;-75
2021/10/13 10:59:59;;;;;;;5.50;1.90;;;14.40;99.90;;;;;;5072145;28;20033;-75
2021/10/13 11:02:26;;;;;;;6.05;2.00;;;14.50;99.90;;;;;;5069325;28;20100;-75
2021/10/13 11:05:05;;;;;;;5.97;2.65;;;14.50;99.90;;;;;;5075490;28;20028;-74
2021/10/13 11:07:35;;;;;;;23.50;4.78;;;14.50;99.90;;;;;;5072257;28;20033;-75
2021/10/13 11:10:05;;;;;;;50.05;6.38;;;14.50;99.90;;;;;;5071510;28;20021;-75
2021/10/13 11:12:47;;;;;;;7.43;1.83;;;14.60;99.90;;;;;;5065115;28;20590;-75
2021/10/13 11:15:13;;;;;;;8.15;1.92;;;14.60;99.90;;;;;;5069821;28;20024;-75
2021/10/13 11:17:39;;;;;;;5.60;1.90;;;14.70;99.90;;;;;;5076246;28;20025;-75
2021/10/13 11:20:12;;;;;;;6.10;2.33;;;14.70;99.90;;;;;;5070142;28;20062;-76
2021/10/13 11:22:38;;;;;;;6.60;2.40;;;14.60;99.90;;;;;;5069279;28;20139;-75
2021/10/13 11:25:18;;;;;;;9.02;2.53;;;14.70;99.90;;;;;;5070677;28;20119;-75
2021/10/13 11:27:59;;;;;;;6.95;2.10;;;14.70;99.90;;;;;;5067500;28;20043;-75
2021/10/13 11:30:28;;;;;;;7.85;2.35;;;14.90;99.90;;;;;;5073445;28;20135;-75
2021/10/13 11:32:53;;;;;;;11.98;3.30;;;15.00;99.90;;;;;;5058185;28;20021;-75
2021/10/13 11:35:20;;;;;;;5.20;2.30;;;15.00;99.90;;;;;;5069698;28;20069;-75
2021/10/13 11:37:54;;;;;;;7.00;2.65;;;15.00;99.90;;;;;;5061974;28;20032;-75
2021/10/13 11:40:21;;;;;;;6.53;2.30;;;14.90;99.90;;;;;;5068005;28;20017;-75
2021/10/13 11:42:47;;;;;;;5.05;1.63;;;14.90;99.90;;;;;;5066141;28;20104;-74
2021/10/13 11:45:21;;;;;;;7.45;2.20;;;14.90;99.90;;;;;;5068419;28;20119;-74
2021/10/13 11:47:48;;;;;;;6.65;2.25;;;14.90;99.90;;;;;;5067718;28;20028;-75
2021/10/13 11:50:21;;;;;;;7.43;1.60;;;14.90;99.90;;;;;;5064053;28;20031;-74
2021/10/13 11:52:55;;;;;;;4.93;1.63;;;14.80;99.90;;;;;;5067980;28;20032;-74
2021/10/13 11:55:28;;;;;;;7.18;1.75;;;14.80;99.90;;;;;;5066297;28;20086;-74
2021/10/13 11:57:57;;;;;;;;;;;14.70;99.90;;;;;;5068297;28;20115;-74
2021/10/13 12:00:31;;;;;;;4.10;2.33;;;14.70;99.90;;;;;;5064107;28;20010;-74
2021/10/13 12:03:06;;;;;;;10.80;1.88;;;14.70;99.90;;;;;;5065925;28;20017;-74
2021/10/13 12:05:36;;;;;;;6.63;1.52;;;14.70;99.90;;;;;;5058878;28;20109;-74
2021/10/13 12:08:24;;;;;;;5.38;1.67;;;14.60;99.90;;;;;;5063005;28;20051;-74
2021/10/13 12:10:55;;;;;;;6.43;1.75;;;14.70;99.90;;;;;;5061700;28;20044;-74
2021/10/13 12:13:26;;;;;;;5.82;2.03;;;14.70;99.90;;;;;;5066948;28;20055;-74
2021/10/13 12:16:00;;;;;;;7.72;1.58;;;14.70;99.90;;;;;;5061678;28;20028;-74
2021/10/13 12:18:28;;;;;;;5.97;2.00;;;14.70;99.90;;;;;;5062883;28;20032;-75
2021/10/13 12:21:02;;;;;;;5.35;2.42;;;14.70;99.90;;;;;;5058990;28;20546;-74
2021/10/13 12:23:37;;;;;;;2.80;1.60;;;14.70;99.90;;;;;;5062181;28;20032;-74
2021/10/13 12:26:18;;;;;;;7.63;2.20;;;14.70;99.90;;;;;;5064051;28;20029;-74
2021/10/13 12:28:45;;;;;;;5.60;1.95;;;14.70;99.90;;;;;;5062112;28;20086;-74
2021/10/13 12:31:16;;;;;;;9.60;2.47;;;14.70;99.90;;;;;;5070944;28;20036;-74
2021/10/13 12:33:48;;;;;;;4.43;1.88;;;14.70;99.90;;;;;;5068380;28;20077;-74
2021/10/13 12:36:30;;;;;;;5.18;1.60;;;14.70;99.90;;;;;;5062926;28;20060;-74
2021/10/13 12:38:59;;;;;;;8.25;2.38;;;14.60;99.90;;;;;;5065113;28;20021;-74
2021/10/13 12:41:37;;;;;;;4.75;1.77;;;14.70;99.90;;;;;;5064950;28;20025;-74
2021/10/13 12:44:18;;;;;;;7.60;1.80;;;14.70;99.90;;;;;;5064131;28;20029;-75
2021/10/13 12:47:01;;;;;;;8.43;2.10;;;14.80;99.90;;;;;;5065794;28;20074;-74
2021/10/13 12:49:32;;;;;;;9.48;2.20;;;14.90;99.90;;;;;;5063530;28;20032;-74
2021/10/13 12:51:59;;;;;;;12.10;2.33;;;15.10;99.90;;;;;;5070066;28;20032;-74